• Join FlightAware (Why Join?)
  • Login
  • US Flag 
06:16AM EST


 

Airport Tracker/Info


-or-


 

Live Flight TrackerFlight Track Log ✈ ASQ5718 ✈ 27-Aug-2013 ✈ KBDL - KIAD

Flight Track Log - Related Links

Times and Time Zones

All times are in EDT time to prevent confusion due to time zone crossing. See the ASQ5718 flight status page for this flight to view local times or setup timezone preferences in your user account.

Time Position Orientation Groundspeed Altitude Reporting Facility
EDT Latitude Longitude Course Direction KTS MPH feet Rate Location/Type
06:07AM 41.9478 -72.7025 242° Southwest 145 167 800  Level Boston Center
06:09AM 41.9706 -72.7697 295° West 201 231 3,400 2,081 Climbing Boston Center
06:10AM 41.9661 -72.8394 265° West 217 250 5,100 1,897 Climbing Boston Center
06:11AM 41.9000 -73.2444 270° West  Level FlightAware Approximate
06:11AM 41.9533 -72.9397 260° West 247 284 7,100  Level Boston Center
06:12AM 41.8641 -73.3719 236° Southwest  Level FlightAware Approximate
06:12AM 41.9403 -73.0625 262° West 282 325 9,600  Level Boston Center
06:13AM 41.8094 -73.4933 242° Southwest  Level FlightAware Approximate
06:13AM 41.9269 -73.1739 261° West 310 357 11,300  Level Boston Center
06:14AM 41.9053 -73.2992 257° West 337 388 12,700 1,678 Climbing Boston Center
06:15AM 41.8586 -73.4017 239° Southwest 348 400 14,600 1,884 Climbing Boston Center
06:16AM 41.8053 -73.5233 240° Southwest 360 414 16,500 1,537 Climbing Boston Center
06:17AM 41.7481 -73.6200 232° Southwest 360 414 17,700 1,250 Climbing Boston Center
06:18AM 41.6417 -73.6289 184° South 337 388 19,000 1,328 Climbing Boston Center
06:19AM 41.5378 -73.6106 172° South 347 399 20,400 1,232 Climbing Boston Center
06:21AM 41.3797 -73.7656 216° Southwest 342 394 22,800 1,148 Climbing New York Center
06:22AM 41.3144 -73.8786 232° Southwest 359 413 23,900 1,050 Climbing New York Center
06:23AM 41.2511 -73.9889 233° Southwest 372 428 24,900 1,000 Climbing New York Center
06:24AM 41.1897 -74.0989 233° Southwest 378 435 25,900 550 Climbing New York Center
06:25AM 41.1219 -74.2111 231° Southwest 384 442 26,000 50 Climbing New York Center
06:26AM 41.0536 -74.3317 233° Southwest 400 460 26,000  Level New York Center
06:27AM 40.9878 -74.4464 233° Southwest 405 466 26,000  Level New York Center
06:28AM 40.9236 -74.5608 233° Southwest 405 466 26,000  Level New York Center
06:29AM 40.8781 -74.6819 244° Southwest 388 447 26,000  Level New York Center
06:30AM 40.8383 -74.8083 247° West 380 437 26,000  Level New York Center
06:31AM 40.7906 -74.9289 242° Southwest 375 432 26,000  Level New York Center
06:32AM 40.7319 -75.0486 237° Southwest 381 438 26,000  Level New York Center
06:33AM 40.6711 -75.1761 238° Southwest 399 459 26,000 -200 Level New York Center
06:34AM 40.6100 -75.3061 238° Southwest 410 472 25,600 -750 Descending New York Center
06:35AM 40.5422 -75.4411 237° Southwest 429 494 24,500 -1,050 Descending New York Center
06:36AM 40.4742 -75.5783 237° Southwest 444 511 23,500 -1,000 Descending New York Center
06:37AM 40.4081 -75.7156 238° Southwest 444 511 22,500 -1,000 Descending New York Center
06:38AM 40.3394 -75.8550 237° Southwest 444 511 21,500 -1,050 Descending New York Center
06:39AM 40.2600 -76.0042 235° Southwest 452 520 20,400 -750 Descending New York Center
06:40AM 40.1933 -76.1431 238° Southwest 457 526 20,000 -733 Descending New York Center
06:42AM 40.0711 -76.3969 238° Southwest 427 491 18,200 -953 Descending New York Center
06:44AM 39.9667 -76.6167 238° Southwest 383 441 16,300 -1,006 Descending Potomac TRACON
06:45AM 39.9167 -76.7333 241° Southwest 372 428 15,300 -684 Descending Potomac TRACON
06:45AM 39.8667 -76.8333 237° Southwest 368 423 15,000 -579 Descending Potomac TRACON
06:46AM 39.8167 -76.9500 241° Southwest 367 422 14,200 -1,105 Descending Potomac TRACON
06:47AM 39.7667 -77.0333 232° Southwest 350 403 12,900 -1,421 Descending Potomac TRACON
06:48AM 39.7167 -77.1333 237° Southwest 339 390 11,500 -1,350 Descending Potomac TRACON
06:49AM 39.6833 -77.2333 247° West 317 365 10,200 -1,526 Descending Potomac TRACON
06:50AM 39.6333 -77.3167 232° Southwest 285 328 8,600 -1,684 Descending Potomac TRACON
06:51AM 39.5667 -77.3667 210° Southwest 300 345 7,000 -1,000 Descending Potomac TRACON
06:52AM 39.5000 -77.4167 210° Southwest 297 342 6,700 -526 Descending Potomac TRACON
06:53AM 39.4167 -77.4667 205° Southwest 300 345 6,000 -750 Descending Potomac TRACON
06:54AM 39.3333 -77.4667 180° South 299 344 5,200 -842 Descending Potomac TRACON
06:55AM 39.2667 -77.4667 180° South 299 344 4,400 -1,000 Descending Potomac TRACON
06:56AM 39.1833 -77.4667 180° South 291 335 3,300 -900 Descending Potomac TRACON
06:57AM 39.1000 -77.4667 180° South 271 312 2,600 -737 Descending Potomac TRACON
06:58AM 39.0500 -77.4667 180° South 206 237 1,900 -842 Descending Potomac TRACON
06:59AM 39.0167 -77.4667 180° South 148 170 1,000 -900 Descending Potomac TRACON